sensor_id;sensor_type;location;lat;lon;timestamp;temperature;humidity
2935;DHT22;2462;51.456;7.248;2023-04-03T00:01:12;12.00;99.90
2935;DHT22;2462;51.456;7.248;2023-04-03T00:03:38;12.10;99.90
2935;DHT22;2462;51.456;7.248;2023-04-03T00:06:04;12.00;99.90
2935;DHT22;2462;51.456;7.248;2023-04-03T00:08:32;12.00;99.90
2935;DHT22;2462;51.456;7.248;2023-04-03T00:10:58;12.00;99.90
2935;DHT22;2462;51.456;7.248;2023-04-03T00:13:23;12.00;99.90
2935;DHT22;2462;51.456;7.248;2023-04-03T00:15:50;12.00;99.90
2935;DHT22;2462;51.456;7.248;2023-04-03T00:18:16;12.00;99.90
2935;DHT22;2462;51.456;7.248;2023-04-03T00:20:41;12.00;99.90
2935;DHT22;2462;51.456;7.248;2023-04-03T00:23:07;11.90;99.90
2935;DHT22;2462;51.456;7.248;2023-04-03T00:25:32;11.90;99.90
2935;DHT22;2462;51.456;7.248;2023-04-03T00:27:58;11.90;99.90
2935;DHT22;2462;51.456;7.248;2023-04-03T00:30:24;11.90;99.90
2935;DHT22;2462;51.456;7.248;2023-04-03T00:32:51;11.90;99.90
2935;DHT22;2462;51.456;7.248;2023-04-03T00:35:18;11.90;99.90
2935;DHT22;2462;51.456;7.248;2023-04-03T00:37:44;11.90;99.90
2935;DHT22;2462;51.456;7.248;2023-04-03T00:40:11;11.90;99.90
2935;DHT22;2462;51.456;7.248;2023-04-03T00:42:38;11.90;99.90
2935;DHT22;2462;51.456;7.248;2023-04-03T00:47:30;11.80;99.90
2935;DHT22;2462;51.456;7.248;2023-04-03T00:49:56;11.90;99.90
2935;DHT22;2462;51.456;7.248;2023-04-03T00:52:27;11.80;99.90
2935;DHT22;2462;51.456;7.248;2023-04-03T00:55:00;11.80;99.90
2935;DHT22;2462;51.456;7.248;2023-04-03T00:57:27;11.80;99.90
2935;DHT22;2462;51.456;7.248;2023-04-03T00:59:59;11.80;99.90
2935;DHT22;2462;51.456;7.248;2023-04-03T01:02:26;11.80;99.90
2935;DHT22;2462;51.456;7.248;2023-04-03T01:04:52;11.80;99.90
2935;DHT22;2462;51.456;7.248;2023-04-03T01:07:19;11.80;99.90
2935;DHT22;2462;51.456;7.248;2023-04-03T01:09:47;11.70;99.90
2935;DHT22;2462;51.456;7.248;2023-04-03T01:12:39;11.70;99.90
2935;DHT22;2462;51.456;7.248;2023-04-03T01:15:11;11.70;99.90
2935;DHT22;2462;51.456;7.248;2023-04-03T01:17:47;11.70;99.90
2935;DHT22;2462;51.456;7.248;2023-04-03T01:20:42;11.70;99.90
2935;DHT22;2462;51.456;7.248;2023-04-03T01:23:36;11.70;99.90
2935;DHT22;2462;51.456;7.248;2023-04-03T01:26:06;11.70;99.90
2935;DHT22;2462;51.456;7.248;2023-04-03T01:28:35;11.70;99.90
2935;DHT22;2462;51.456;7.248;2023-04-03T01:33:42;11.70;99.90
2935;DHT22;2462;51.456;7.248;2023-04-03T01:36:08;11.70;99.90
2935;DHT22;2462;51.456;7.248;2023-04-03T01:38:34;11.70;99.90
2935;DHT22;2462;51.456;7.248;2023-04-03T01:41:00;11.70;99.90
2935;DHT22;2462;51.456;7.248;2023-04-03T01:43:26;11.70;99.90
2935;DHT22;2462;51.456;7.248;2023-04-03T01:45:51;11.70;99.90
2935;DHT22;2462;51.456;7.248;2023-04-03T01:48:20;11.70;99.90
2935;DHT22;2462;51.456;7.248;2023-04-03T01:50:45;11.70;99.90
2935;DHT22;2462;51.456;7.248;2023-04-03T01:53:12;11.70;99.90
2935;DHT22;2462;51.456;7.248;2023-04-03T01:55:38;11.70;99.90
2935;DHT22;2462;51.456;7.248;2023-04-03T01:58:04;11.70;99.90
2935;DHT22;2462;51.456;7.248;2023-04-03T02:00:29;11.70;99.90
2935;DHT22;2462;51.456;7.248;2023-04-03T02:02:56;11.70;99.90
2935;DHT22;2462;51.456;7.248;2023-04-03T02:05:22;11.70;99.90
2935;DHT22;2462;51.456;7.248;2023-04-03T02:07:47;11.70;99.90
2935;DHT22;2462;51.456;7.248;2023-04-03T02:10:13;11.70;99.90
2935;DHT22;2462;51.456;7.248;2023-04-03T02:12:38;11.70;99.90
2935;DHT22;2462;51.456;7.248;2023-04-03T02:15:04;11.70;99.90
2935;DHT22;2462;51.456;7.248;2023-04-03T02:17:30;11.60;99.90
2935;DHT22;2462;51.456;7.248;2023-04-03T02:19:56;11.60;99.90
2935;DHT22;2462;51.456;7.248;2023-04-03T02:22:21;11.60;99.90
2935;DHT22;2462;51.456;7.248;2023-04-03T02:24:47;11.60;99.90
2935;DHT22;2462;51.456;7.248;2023-04-03T02:27:12;11.60;99.90
2935;DHT22;2462;51.456;7.248;2023-04-03T02:29:38;11.60;99.90
2935;DHT22;2462;51.456;7.248;2023-04-03T02:32:04;11.60;99.90
2935;DHT22;2462;51.456;7.248;2023-04-03T02:34:29;11.60;99.90
2935;DHT22;2462;51.456;7.248;2023-04-03T02:36:55;11.60;99.90
2935;DHT22;2462;51.456;7.248;2023-04-03T02:39:20;11.60;99.90
2935;DHT22;2462;51.456;7.248;2023-04-03T02:41:46;11.60;99.90
2935;DHT22;2462;51.456;7.248;2023-04-03T02:44:12;11.60;99.90
2935;DHT22;2462;51.456;7.248;2023-04-03T02:46:38;11.60;99.90
2935;DHT22;2462;51.456;7.248;2023-04-03T02:49:03;11.60;99.90
2935;DHT22;2462;51.456;7.248;2023-04-03T02:51:29;11.60;99.90
2935;DHT22;2462;51.456;7.248;2023-04-03T02:53:55;11.60;99.90
2935;DHT22;2462;51.456;7.248;2023-04-03T02:56:21;11.50;99.90
2935;DHT22;2462;51.456;7.248;2023-04-03T02:58:47;11.50;99.90
2935;DHT22;2462;51.456;7.248;2023-04-03T03:01:14;11.50;99.90
2935;DHT22;2462;51.456;7.248;2023-04-03T03:03:39;11.50;99.90
2935;DHT22;2462;51.456;7.248;2023-04-03T03:06:08;11.50;99.90
2935;DHT22;2462;51.456;7.248;2023-04-03T03:08:34;11.50;99.90
2935;DHT22;2462;51.456;7.248;2023-04-03T03:11:00;11.50;99.90
2935;DHT22;2462;51.456;7.248;2023-04-03T03:13:26;11.50;99.90
2935;DHT22;2462;51.456;7.248;2023-04-03T03:15:51;11.50;99.90
2935;DHT22;2462;51.456;7.248;2023-04-03T03:18:17;11.50;99.90
2935;DHT22;2462;51.456;7.248;2023-04-03T03:20:43;11.50;99.90
2935;DHT22;2462;51.456;7.248;2023-04-03T03:23:09;11.50;99.90
2935;DHT22;2462;51.456;7.248;2023-04-03T03:25:38;11.50;99.90
2935;DHT22;2462;51.456;7.248;2023-04-03T03:28:04;11.60;99.90
2935;DHT22;2462;51.456;7.248;2023-04-03T03:30:30;11.60;99.90
2935;DHT22;2462;51.456;7.248;2023-04-03T03:32:56;11.60;99.90
2935;DHT22;2462;51.456;7.248;2023-04-03T03:35:21;11.60;99.90
2935;DHT22;2462;51.456;7.248;2023-04-03T03:37:47;11.50;99.90
2935;DHT22;2462;51.456;7.248;2023-04-03T03:40:12;11.50;99.90
2935;DHT22;2462;51.456;7.248;2023-04-03T03:42:38;11.50;99.90
2935;DHT22;2462;51.456;7.248;2023-04-03T03:45:05;11.50;99.90
2935;DHT22;2462;51.456;7.248;2023-04-03T03:47:30;11.40;99.90
2935;DHT22;2462;51.456;7.248;2023-04-03T03:49:56;11.50;99.90
2935;DHT22;2462;51.456;7.248;2023-04-03T03:52:21;11.50;99.90
2935;DHT22;2462;51.456;7.248;2023-04-03T03:54:47;11.50;99.90
2935;DHT22;2462;51.456;7.248;2023-04-03T03:57:12;11.50;99.90
2935;DHT22;2462;51.456;7.248;2023-04-03T03:59:38;11.40;99.90
2935;DHT22;2462;51.456;7.248;2023-04-03T04:02:05;11.40;99.90
2935;DHT22;2462;51.456;7.248;2023-04-03T04:04:31;11.40;99.90
2935;DHT22;2462;51.456;7.248;2023-04-03T04:06:56;11.40;99.90
2935;DHT22;2462;51.456;7.248;2023-04-03T04:09:22;11.40;99.90
2935;DHT22;2462;51.456;7.248;2023-04-03T04:11:47;11.30;99.90
2935;DHT22;2462;51.456;7.248;2023-04-03T04:14:13;11.40;99.90
2935;DHT22;2462;51.456;7.248;2023-04-03T04:16:38;11.40;99.90
2935;DHT22;2462;51.456;7.248;2023-04-03T04:19:04;11.30;99.90
2935;DHT22;2462;51.456;7.248;2023-04-03T04:21:30;11.30;99.90
2935;DHT22;2462;51.456;7.248;2023-04-03T04:23:55;11.30;99.90
2935;DHT22;2462;51.456;7.248;2023-04-03T04:26:21;11.30;99.90
2935;DHT22;2462;51.456;7.248;2023-04-03T04:28:46;11.30;99.90
2935;DHT22;2462;51.456;7.248;2023-04-03T04:31:12;11.30;99.90
2935;DHT22;2462;51.456;7.248;2023-04-03T04:33:37;11.30;99.90
2935;DHT22;2462;51.456;7.248;2023-04-03T04:36:03;11.20;99.90
2935;DHT22;2462;51.456;7.248;2023-04-03T04:38:28;11.20;99.90
2935;DHT22;2462;51.456;7.248;2023-04-03T04:40:54;11.20;99.90
2935;DHT22;2462;51.456;7.248;2023-04-03T04:43:20;11.30;99.90
2935;DHT22;2462;51.456;7.248;2023-04-03T04:45:45;11.30;99.90
2935;DHT22;2462;51.456;7.248;2023-04-03T04:48:11;11.30;99.90
2935;DHT22;2462;51.456;7.248;2023-04-03T04:50:37;11.30;99.90
2935;DHT22;2462;51.456;7.248;2023-04-03T04:53:03;11.40;99.90
2935;DHT22;2462;51.456;7.248;2023-04-03T04:55:29;11.40;99.90
2935;DHT22;2462;51.456;7.248;2023-04-03T04:57:55;11.40;99.90
2935;DHT22;2462;51.456;7.248;2023-04-03T05:00:21;11.40;99.90
2935;DHT22;2462;51.456;7.248;2023-04-03T05:02:46;11.50;99.90
2935;DHT22;2462;51.456;7.248;2023-04-03T05:05:12;11.40;99.90
2935;DHT22;2462;51.456;7.248;2023-04-03T05:07:37;11.50;99.90
2935;DHT22;2462;51.456;7.248;2023-04-03T05:10:03;11.40;99.90
2935;DHT22;2462;51.456;7.248;2023-04-03T05:12:29;11.50;99.90
2935;DHT22;2462;51.456;7.248;2023-04-03T05:14:55;11.50;99.90
2935;DHT22;2462;51.456;7.248;2023-04-03T05:17:20;11.50;99.90
2935;DHT22;2462;51.456;7.248;2023-04-03T05:19:46;11.50;99.90
2935;DHT22;2462;51.456;7.248;2023-04-03T05:22:11;11.40;99.90
2935;DHT22;2462;51.456;7.248;2023-04-03T05:24:37;11.50;99.90
2935;DHT22;2462;51.456;7.248;2023-04-03T05:27:03;11.40;99.90
2935;DHT22;2462;51.456;7.248;2023-04-03T05:29:28;11.40;99.90
2935;DHT22;2462;51.456;7.248;2023-04-03T05:31:54;11.40;99.90
2935;DHT22;2462;51.456;7.248;2023-04-03T05:34:20;11.40;99.90
2935;DHT22;2462;51.456;7.248;2023-04-03T05:36:46;11.40;99.90
2935;DHT22;2462;51.456;7.248;2023-04-03T05:39:11;11.40;99.90
2935;DHT22;2462;51.456;7.248;2023-04-03T05:41:37;11.40;99.90
2935;DHT22;2462;51.456;7.248;2023-04-03T05:44:02;11.40;99.90
2935;DHT22;2462;51.456;7.248;2023-04-03T05:46:28;11.40;99.90
2935;DHT22;2462;51.456;7.248;2023-04-03T05:48:53;11.40;99.90
2935;DHT22;2462;51.456;7.248;2023-04-03T05:51:25;11.40;99.90
2935;DHT22;2462;51.456;7.248;2023-04-03T05:54:09;11.40;99.90
2935;DHT22;2462;51.456;7.248;2023-04-03T05:56:35;11.40;99.90
2935;DHT22;2462;51.456;7.248;2023-04-03T05:59:01;11.50;99.90
2935;DHT22;2462;51.456;7.248;2023-04-03T06:01:26;11.50;99.90
2935;DHT22;2462;51.456;7.248;2023-04-03T06:03:52;11.50;99.90
2935;DHT22;2462;51.456;7.248;2023-04-03T06:06:17;11.50;99.90
2935;DHT22;2462;51.456;7.248;2023-04-03T06:08:43;11.60;99.90
2935;DHT22;2462;51.456;7.248;2023-04-03T06:11:09;11.60;99.90
2935;DHT22;2462;51.456;7.248;2023-04-03T06:13:34;11.60;99.90
2935;DHT22;2462;51.456;7.248;2023-04-03T06:16:00;11.60;99.90
2935;DHT22;2462;51.456;7.248;2023-04-03T06:18:26;11.60;99.90
2935;DHT22;2462;51.456;7.248;2023-04-03T06:20:52;11.60;99.90
2935;DHT22;2462;51.456;7.248;2023-04-03T06:23:17;11.50;99.90
2935;DHT22;2462;51.456;7.248;2023-04-03T06:25:43;11.50;99.90
2935;DHT22;2462;51.456;7.248;2023-04-03T06:28:09;11.50;99.90
2935;DHT22;2462;51.456;7.248;2023-04-03T06:30:36;11.50;99.90
2935;DHT22;2462;51.456;7.248;2023-04-03T06:33:02;11.50;99.90
2935;DHT22;2462;51.456;7.248;2023-04-03T06:35:27;11.50;99.90
2935;DHT22;2462;51.456;7.248;2023-04-03T06:37:55;11.50;99.90
2935;DHT22;2462;51.456;7.248;2023-04-03T06:40:24;11.50;99.90
2935;DHT22;2462;51.456;7.248;2023-04-03T06:42:51;11.50;99.90
2935;DHT22;2462;51.456;7.248;2023-04-03T06:45:17;11.50;99.90
2935;DHT22;2462;51.456;7.248;2023-04-03T06:47:43;11.50;99.90
2935;DHT22;2462;51.456;7.248;2023-04-03T06:50:10;11.50;99.90
2935;DHT22;2462;51.456;7.248;2023-04-03T06:52:37;11.50;99.90
2935;DHT22;2462;51.456;7.248;2023-04-03T06:55:03;11.50;99.90
2935;DHT22;2462;51.456;7.248;2023-04-03T06:57:29;11.60;99.90
2935;DHT22;2462;51.456;7.248;2023-04-03T06:59:54;11.60;99.90
2935;DHT22;2462;51.456;7.248;2023-04-03T07:02:20;11.70;99.90
2935;DHT22;2462;51.456;7.248;2023-04-03T07:04:47;11.70;99.90
2935;DHT22;2462;51.456;7.248;2023-04-03T07:07:12;11.80;99.90
2935;DHT22;2462;51.456;7.248;2023-04-03T07:09:38;11.80;99.90
2935;DHT22;2462;51.456;7.248;2023-04-03T07:12:03;11.90;99.90
2935;DHT22;2462;51.456;7.248;2023-04-03T07:14:29;11.90;99.90
2935;DHT22;2462;51.456;7.248;2023-04-03T07:16:54;12.00;99.90
2935;DHT22;2462;51.456;7.248;2023-04-03T07:19:20;12.00;99.90
2935;DHT22;2462;51.456;7.248;2023-04-03T07:21:46;12.00;99.90
2935;DHT22;2462;51.456;7.248;2023-04-03T07:24:12;12.00;99.90
2935;DHT22;2462;51.456;7.248;2023-04-03T07:26:38;12.00;99.90
2935;DHT22;2462;51.456;7.248;2023-04-03T07:29:04;12.00;99.90
2935;DHT22;2462;51.456;7.248;2023-04-03T07:31:29;12.00;99.90
2935;DHT22;2462;51.456;7.248;2023-04-03T07:33:55;12.00;99.90
2935;DHT22;2462;51.456;7.248;2023-04-03T07:36:22;12.00;99.90
2935;DHT22;2462;51.456;7.248;2023-04-03T07:38:47;12.00;99.90
2935;DHT22;2462;51.456;7.248;2023-04-03T07:41:18;12.00;99.90
2935;DHT22;2462;51.456;7.248;2023-04-03T07:43:45;12.00;99.90
2935;DHT22;2462;51.456;7.248;2023-04-03T07:46:11;11.90;99.90
2935;DHT22;2462;51.456;7.248;2023-04-03T07:48:37;11.90;99.90
2935;DHT22;2462;51.456;7.248;2023-04-03T07:51:03;11.90;99.90
2935;DHT22;2462;51.456;7.248;2023-04-03T07:53:29;12.00;99.90
2935;DHT22;2462;51.456;7.248;2023-04-03T07:55:56;12.00;99.90
2935;DHT22;2462;51.456;7.248;2023-04-03T07:58:22;12.00;99.90
2935;DHT22;2462;51.456;7.248;2023-04-03T08:00:48;12.10;99.90
2935;DHT22;2462;51.456;7.248;2023-04-03T08:03:14;12.10;99.90
2935;DHT22;2462;51.456;7.248;2023-04-03T08:05:43;12.20;99.90
2935;DHT22;2462;51.456;7.248;2023-04-03T08:08:10;12.20;99.90
2935;DHT22;2462;51.456;7.248;2023-04-03T08:10:35;12.30;99.90
2935;DHT22;2462;51.456;7.248;2023-04-03T08:13:01;12.40;99.90
2935;DHT22;2462;51.456;7.248;2023-04-03T08:15:27;12.50;99.90
2935;DHT22;2462;51.456;7.248;2023-04-03T08:17:53;12.60;99.90
2935;DHT22;2462;51.456;7.248;2023-04-03T08:20:19;12.70;99.90
2935;DHT22;2462;51.456;7.248;2023-04-03T08:25:11;12.90;99.90
2935;DHT22;2462;51.456;7.248;2023-04-03T08:27:37;13.10;99.90
2935;DHT22;2462;51.456;7.248;2023-04-03T12:39:05;20.10;99.10
2935;DHT22;2462;51.456;7.248;2023-04-03T12:44:24;19.70;95.20
2935;DHT22;2462;51.456;7.248;2023-04-03T13:34:17;20.10;96.00
2935;DHT22;2462;51.456;7.248;2023-04-03T13:37:06;20.00;96.10
2935;DHT22;2462;51.456;7.248;2023-04-03T13:39:35;20.00;96.40
2935;DHT22;2462;51.456;7.248;2023-04-03T13:42:24;19.90;96.60
2935;DHT22;2462;51.456;7.248;2023-04-03T13:44:48;19.90;96.60
2935;DHT22;2462;51.456;7.248;2023-04-03T13:47:22;19.80;96.40
2935;DHT22;2462;51.456;7.248;2023-04-03T13:50:04;19.80;95.40
2935;DHT22;2462;51.456;7.248;2023-04-03T13:53:02;19.80;95.90
2935;DHT22;2462;51.456;7.248;2023-04-03T13:55:30;19.70;96.30
2935;DHT22;2462;51.456;7.248;2023-04-03T14:01:06;19.60;95.90
2935;DHT22;2462;51.456;7.248;2023-04-03T14:06:06;19.50;96.40
2935;DHT22;2462;51.456;7.248;2023-04-03T14:08:32;19.40;96.30
2935;DHT22;2462;51.456;7.248;2023-04-03T14:10:58;19.40;96.30
2935;DHT22;2462;51.456;7.248;2023-04-03T14:13:23;19.30;96.30
2935;DHT22;2462;51.456;7.248;2023-04-03T14:15:49;19.30;96.20
2935;DHT22;2462;51.456;7.248;2023-04-03T14:18:19;19.30;96.30
2935;DHT22;2462;51.456;7.248;2023-04-03T14:20:46;19.20;96.30
2935;DHT22;2462;51.456;7.248;2023-04-03T14:23:12;19.10;96.30
2935;DHT22;2462;51.456;7.248;2023-04-03T14:25:38;19.10;96.20
2935;DHT22;2462;51.456;7.248;2023-04-03T14:28:18;19.10;96.40
2935;DHT22;2462;51.456;7.248;2023-04-03T14:30:45;19.00;95.60
2935;DHT22;2462;51.456;7.248;2023-04-03T14:33:15;18.90;95.70
2935;DHT22;2462;51.456;7.248;2023-04-03T14:35:41;18.80;96.00
2935;DHT22;2462;51.456;7.248;2023-04-03T14:38:28;18.70;96.10
2935;DHT22;2462;51.456;7.248;2023-04-03T14:40:54;18.70;95.50
2935;DHT22;2462;51.456;7.248;2023-04-03T14:43:20;18.60;95.70
2935;DHT22;2462;51.456;7.248;2023-04-03T14:45:47;18.60;95.80
2935;DHT22;2462;51.456;7.248;2023-04-03T14:48:20;18.50;95.80
2935;DHT22;2462;51.456;7.248;2023-04-03T14:50:47;18.40;94.50
2935;DHT22;2462;51.456;7.248;2023-04-03T14:53:14;18.30;94.80
2935;DHT22;2462;51.456;7.248;2023-04-03T14:55:41;18.20;95.10
2935;DHT22;2462;51.456;7.248;2023-04-03T14:58:14;18.10;95.40
2935;DHT22;2462;51.456;7.248;2023-04-03T15:00:44;18.10;95.40
2935;DHT22;2462;51.456;7.248;2023-04-03T15:03:15;18.00;96.10
2935;DHT22;2462;51.456;7.248;2023-04-03T15:05:42;17.90;95.80
2935;DHT22;2462;51.456;7.248;2023-04-03T15:08:18;17.90;95.90
2935;DHT22;2462;51.456;7.248;2023-04-03T15:10:44;17.80;96.00
2935;DHT22;2462;51.456;7.248;2023-04-03T15:13:12;17.80;96.00
2935;DHT22;2462;51.456;7.248;2023-04-03T15:15:37;17.70;96.00
2935;DHT22;2462;51.456;7.248;2023-04-03T15:18:03;17.60;96.00
2935;DHT22;2462;51.456;7.248;2023-04-03T15:20:30;17.60;96.20
2935;DHT22;2462;51.456;7.248;2023-04-03T15:22:56;17.50;96.10
2935;DHT22;2462;51.456;7.248;2023-04-03T15:25:23;17.50;96.20
2935;DHT22;2462;51.456;7.248;2023-04-03T15:27:48;17.40;96.20
2935;DHT22;2462;51.456;7.248;2023-04-03T15:30:17;17.30;96.30
2935;DHT22;2462;51.456;7.248;2023-04-03T15:32:43;17.30;96.00
2935;DHT22;2462;51.456;7.248;2023-04-03T15:35:08;17.30;96.40
2935;DHT22;2462;51.456;7.248;2023-04-03T15:37:34;17.20;96.40
2935;DHT22;2462;51.456;7.248;2023-04-03T15:40:00;17.10;96.30
2935;DHT22;2462;51.456;7.248;2023-04-03T15:42:26;17.10;96.50
2935;DHT22;2462;51.456;7.248;2023-04-03T15:44:52;17.00;96.10
2935;DHT22;2462;51.456;7.248;2023-04-03T15:47:17;17.00;96.10
2935;DHT22;2462;51.456;7.248;2023-04-03T15:49:43;16.90;96.30
2935;DHT22;2462;51.456;7.248;2023-04-03T15:52:08;16.90;96.30
2935;DHT22;2462;51.456;7.248;2023-04-03T15:54:34;16.80;96.30
2935;DHT22;2462;51.456;7.248;2023-04-03T15:56:59;16.80;96.40
2935;DHT22;2462;51.456;7.248;2023-04-03T15:59:25;16.80;96.50
2935;DHT22;2462;51.456;7.248;2023-04-03T16:01:51;16.70;96.60
2935;DHT22;2462;51.456;7.248;2023-04-03T16:04:18;16.70;96.60
2935;DHT22;2462;51.456;7.248;2023-04-03T16:06:43;16.60;96.70
2935;DHT22;2462;51.456;7.248;2023-04-03T16:09:09;16.60;96.70
2935;DHT22;2462;51.456;7.248;2023-04-03T16:11:36;16.60;96.70
2935;DHT22;2462;51.456;7.248;2023-04-03T16:14:05;16.50;96.60
2935;DHT22;2462;51.456;7.248;2023-04-03T16:16:30;16.50;96.70
2935;DHT22;2462;51.456;7.248;2023-04-03T16:18:56;16.50;96.80
2935;DHT22;2462;51.456;7.248;2023-04-03T16:21:23;16.40;96.80
2935;DHT22;2462;51.456;7.248;2023-04-03T16:23:48;16.40;96.90
2935;DHT22;2462;51.456;7.248;2023-04-03T16:26:14;16.30;96.90
2935;DHT22;2462;51.456;7.248;2023-04-03T16:28:40;16.30;97.00
2935;DHT22;2462;51.456;7.248;2023-04-03T16:31:07;16.20;97.00
2935;DHT22;2462;51.456;7.248;2023-04-03T16:33:33;16.20;97.00
2935;DHT22;2462;51.456;7.248;2023-04-03T16:35:59;16.20;97.10
2935;DHT22;2462;51.456;7.248;2023-04-03T16:38:24;16.10;97.00
2935;DHT22;2462;51.456;7.248;2023-04-03T16:40:50;16.10;96.90
2935;DHT22;2462;51.456;7.248;2023-04-03T16:43:17;16.00;96.90
2935;DHT22;2462;51.456;7.248;2023-04-03T16:45:43;16.00;97.00
2935;DHT22;2462;51.456;7.248;2023-04-03T16:48:08;16.00;97.00
2935;DHT22;2462;51.456;7.248;2023-04-03T16:50:34;15.90;96.80
2935;DHT22;2462;51.456;7.248;2023-04-03T16:53:00;15.90;96.70
2935;DHT22;2462;51.456;7.248;2023-04-03T16:55:28;15.80;96.40
2935;DHT22;2462;51.456;7.248;2023-04-03T16:57:53;15.80;96.70
2935;DHT22;2462;51.456;7.248;2023-04-03T17:00:19;15.80;96.70
2935;DHT22;2462;51.456;7.248;2023-04-03T17:02:45;15.70;96.80
2935;DHT22;2462;51.456;7.248;2023-04-03T17:05:10;15.70;96.90
2935;DHT22;2462;51.456;7.248;2023-04-03T17:07:36;15.70;96.80
2935;DHT22;2462;51.456;7.248;2023-04-03T17:10:02;15.70;97.00
2935;DHT22;2462;51.456;7.248;2023-04-03T17:12:27;15.70;97.10
2935;DHT22;2462;51.456;7.248;2023-04-03T17:14:53;15.60;97.10
2935;DHT22;2462;51.456;7.248;2023-04-03T17:17:22;15.60;97.10
2935;DHT22;2462;51.456;7.248;2023-04-03T17:19:48;15.50;97.10
2935;DHT22;2462;51.456;7.248;2023-04-03T17:22:14;15.50;97.30
2935;DHT22;2462;51.456;7.248;2023-04-03T17:24:41;15.50;97.30
2935;DHT22;2462;51.456;7.248;2023-04-03T17:27:07;15.50;97.50
2935;DHT22;2462;51.456;7.248;2023-04-03T17:29:32;15.40;97.50
2935;DHT22;2462;51.456;7.248;2023-04-03T17:31:58;15.40;97.40
2935;DHT22;2462;51.456;7.248;2023-04-03T17:34:24;15.30;97.50
2935;DHT22;2462;51.456;7.248;2023-04-03T17:36:49;15.30;97.50
2935;DHT22;2462;51.456;7.248;2023-04-03T17:39:15;15.30;97.70
2935;DHT22;2462;51.456;7.248;2023-04-03T17:41:40;15.30;97.70
2935;DHT22;2462;51.456;7.248;2023-04-03T17:44:06;15.20;97.40
2935;DHT22;2462;51.456;7.248;2023-04-03T17:46:32;15.10;97.30
2935;DHT22;2462;51.456;7.248;2023-04-03T17:48:58;15.10;98.00
2935;DHT22;2462;51.456;7.248;2023-04-03T17:51:24;15.00;97.50
2935;DHT22;2462;51.456;7.248;2023-04-03T17:53:50;15.00;97.60
2935;DHT22;2462;51.456;7.248;2023-04-03T17:56:24;15.00;97.80
2935;DHT22;2462;51.456;7.248;2023-04-03T17:58:53;14.90;97.90
2935;DHT22;2462;51.456;7.248;2023-04-03T18:01:21;14.90;97.90
2935;DHT22;2462;51.456;7.248;2023-04-03T18:03:48;14.80;98.00
2935;DHT22;2462;51.456;7.248;2023-04-03T18:06:17;14.80;98.00
2935;DHT22;2462;51.456;7.248;2023-04-03T18:08:47;14.80;98.10
2935;DHT22;2462;51.456;7.248;2023-04-03T18:11:14;14.70;98.10
2935;DHT22;2462;51.456;7.248;2023-04-03T18:13:40;14.70;98.10
2935;DHT22;2462;51.456;7.248;2023-04-03T18:16:07;14.70;98.20
2935;DHT22;2462;51.456;7.248;2023-04-03T18:18:33;14.60;98.20
2935;DHT22;2462;51.456;7.248;2023-04-03T18:20:59;14.60;98.20
2935;DHT22;2462;51.456;7.248;2023-04-03T18:23:26;14.50;98.30
2935;DHT22;2462;51.456;7.248;2023-04-03T18:25:55;14.50;98.30
2935;DHT22;2462;51.456;7.248;2023-04-03T18:28:21;14.50;98.40
2935;DHT22;2462;51.456;7.248;2023-04-03T18:30:47;14.40;98.30
2935;DHT22;2462;51.456;7.248;2023-04-03T18:33:13;14.40;98.40
2935;DHT22;2462;51.456;7.248;2023-04-03T18:35:38;14.40;98.40
2935;DHT22;2462;51.456;7.248;2023-04-03T18:38:04;14.40;98.70
2935;DHT22;2462;51.456;7.248;2023-04-03T18:40:35;14.30;98.40
2935;DHT22;2462;51.456;7.248;2023-04-03T18:43:01;14.30;98.40
2935;DHT22;2462;51.456;7.248;2023-04-03T18:45:27;14.20;98.40
2935;DHT22;2462;51.456;7.248;2023-04-03T18:47:53;14.30;98.50
2935;DHT22;2462;51.456;7.248;2023-04-03T18:50:19;14.20;98.40
2935;DHT22;2462;51.456;7.248;2023-04-03T18:52:45;14.20;98.50
2935;DHT22;2462;51.456;7.248;2023-04-03T18:55:16;14.20;98.50
2935;DHT22;2462;51.456;7.248;2023-04-03T18:57:44;14.10;98.50
2935;DHT22;2462;51.456;7.248;2023-04-03T19:00:11;14.10;98.50
2935;DHT22;2462;51.456;7.248;2023-04-03T19:02:36;14.10;98.60
2935;DHT22;2462;51.456;7.248;2023-04-03T19:05:03;14.00;98.60
2935;DHT22;2462;51.456;7.248;2023-04-03T19:07:29;14.00;98.60
2935;DHT22;2462;51.456;7.248;2023-04-03T19:09:54;13.90;98.60
2935;DHT22;2462;51.456;7.248;2023-04-03T19:12:20;13.90;98.60
2935;DHT22;2462;51.456;7.248;2023-04-03T19:14:46;14.00;98.70
2935;DHT22;2462;51.456;7.248;2023-04-03T19:17:11;13.90;98.90
2935;DHT22;2462;51.456;7.248;2023-04-03T19:19:37;13.90;98.50
2935;DHT22;2462;51.456;7.248;2023-04-03T19:22:03;13.90;98.50
2935;DHT22;2462;51.456;7.248;2023-04-03T19:24:28;13.90;98.50
2935;DHT22;2462;51.456;7.248;2023-04-03T19:26:54;13.90;98.50
2935;DHT22;2462;51.456;7.248;2023-04-03T19:29:19;13.90;98.50
2935;DHT22;2462;51.456;7.248;2023-04-03T19:31:45;13.80;98.60
2935;DHT22;2462;51.456;7.248;2023-04-03T19:34:10;13.80;98.60
2935;DHT22;2462;51.456;7.248;2023-04-03T19:36:36;13.80;98.70
2935;DHT22;2462;51.456;7.248;2023-04-03T19:39:03;13.70;98.70
2935;DHT22;2462;51.456;7.248;2023-04-03T19:41:29;13.70;98.80
2935;DHT22;2462;51.456;7.248;2023-04-03T19:43:55;13.70;98.90
2935;DHT22;2462;51.456;7.248;2023-04-03T19:46:26;13.60;98.80
2935;DHT22;2462;51.456;7.248;2023-04-03T19:48:52;13.60;98.90
2935;DHT22;2462;51.456;7.248;2023-04-03T19:51:18;13.60;98.90
2935;DHT22;2462;51.456;7.248;2023-04-03T19:53:44;13.50;98.90
2935;DHT22;2462;51.456;7.248;2023-04-03T19:56:11;13.50;98.90
2935;DHT22;2462;51.456;7.248;2023-04-03T19:58:37;13.50;98.90
2935;DHT22;2462;51.456;7.248;2023-04-03T20:01:04;13.50;98.90
2935;DHT22;2462;51.456;7.248;2023-04-03T20:03:30;13.40;98.90
2935;DHT22;2462;51.456;7.248;2023-04-03T20:05:55;13.40;99.00
2935;DHT22;2462;51.456;7.248;2023-04-03T20:08:22;13.40;99.10
2935;DHT22;2462;51.456;7.248;2023-04-03T20:10:50;13.30;99.10
2935;DHT22;2462;51.456;7.248;2023-04-03T20:13:16;13.30;99.30
2935;DHT22;2462;51.456;7.248;2023-04-03T20:15:42;13.30;99.10
2935;DHT22;2462;51.456;7.248;2023-04-03T20:18:19;13.30;99.10
2935;DHT22;2462;51.456;7.248;2023-04-03T20:20:55;13.30;99.10
2935;DHT22;2462;51.456;7.248;2023-04-03T20:23:22;13.30;99.10
2935;DHT22;2462;51.456;7.248;2023-04-03T20:25:48;13.20;99.10
2935;DHT22;2462;51.456;7.248;2023-04-03T20:28:14;13.20;99.10
2935;DHT22;2462;51.456;7.248;2023-04-03T20:30:42;13.20;99.10
2935;DHT22;2462;51.456;7.248;2023-04-03T20:33:09;13.20;99.10
2935;DHT22;2462;51.456;7.248;2023-04-03T20:35:35;13.20;99.10
2935;DHT22;2462;51.456;7.248;2023-04-03T20:38:00;13.20;99.10
2935;DHT22;2462;51.456;7.248;2023-04-03T20:40:27;13.20;99.10
2935;DHT22;2462;51.456;7.248;2023-04-03T20:42:55;13.20;99.30
2935;DHT22;2462;51.456;7.248;2023-04-03T20:45:21;13.20;99.30
2935;DHT22;2462;51.456;7.248;2023-04-03T20:47:47;13.10;99.30
2935;DHT22;2462;51.456;7.248;2023-04-03T20:50:13;13.10;99.30
2935;DHT22;2462;51.456;7.248;2023-04-03T20:52:39;13.10;99.40
2935;DHT22;2462;51.456;7.248;2023-04-03T20:55:05;13.10;99.40
2935;DHT22;2462;51.456;7.248;2023-04-03T20:57:32;13.10;99.40
2935;DHT22;2462;51.456;7.248;2023-04-03T20:59:58;13.10;99.40
2935;DHT22;2462;51.456;7.248;2023-04-03T21:02:23;13.10;99.40
2935;DHT22;2462;51.456;7.248;2023-04-03T21:04:53;13.10;99.50
2935;DHT22;2462;51.456;7.248;2023-04-03T21:21:26;12.90;99.70
2935;DHT22;2462;51.456;7.248;2023-04-03T21:23:53;12.90;99.70
2935;DHT22;2462;51.456;7.248;2023-04-03T21:26:20;12.90;99.70